createdAt,value
2023-02-27T00:01:49.290Z,-0.07
2023-02-27T00:06:51.073Z,-0.15
2023-02-27T00:11:57.735Z,-0.27
2023-02-27T00:17:04.094Z,-0.38
2023-02-27T00:22:05.838Z,-0.47
2023-02-27T00:27:07.554Z,-0.53
2023-02-27T00:32:09.253Z,-0.57
2023-02-27T00:37:13.218Z,-0.59
2023-02-27T00:42:15.012Z,-0.55
2023-02-27T00:47:16.746Z,-0.46
2023-02-27T00:52:18.632Z,-0.32
2023-02-27T00:57:20.562Z,-0.21
2023-02-27T01:02:22.531Z,-0.15
2023-02-27T01:07:24.605Z,-0.07
2023-02-27T01:12:26.370Z,0.01
2023-02-27T01:17:28.057Z,0.09
2023-02-27T01:22:29.729Z,0.15
2023-02-27T01:27:31.589Z,0.17
2023-02-27T01:32:33.520Z,0.23
2023-02-27T01:37:35.496Z,0.30
2023-02-27T01:42:37.234Z,0.32
2023-02-27T01:47:48.310Z,0.30
2023-02-27T01:52:56.205Z,0.30
2023-02-27T01:57:58.236Z,0.35
2023-02-27T02:03:08.268Z,0.41
2023-02-27T02:08:13.970Z,0.44
2023-02-27T02:13:15.744Z,0.43
2023-02-27T02:18:17.332Z,0.43
2023-02-27T02:23:21.808Z,0.42
2023-02-27T02:28:52.932Z,0.43
2023-02-27T02:34:01.893Z,0.41
2023-02-27T02:39:24.041Z,0.41
2023-02-27T02:44:40.908Z,0.36
2023-02-27T02:49:50.450Z,0.30
2023-02-27T02:55:16.725Z,0.28
2023-02-27T03:00:22.779Z,0.24
2023-02-27T03:05:32.094Z,0.15
2023-02-27T03:10:50.544Z,0.11
2023-02-27T03:16:11.575Z,0.09
2023-02-27T03:21:22.716Z,0.08
2023-02-27T03:26:33.580Z,0.04
2023-02-27T03:31:47.643Z,-0.01
2023-02-27T03:37:11.574Z,-0.04
2023-02-27T03:42:41.722Z,-0.05
2023-02-27T03:47:51.963Z,-0.06
2023-02-27T03:52:54.715Z,-0.06
2023-02-27T03:57:56.729Z,-0.07
2023-02-27T04:03:00.555Z,-0.07
2023-02-27T04:08:37.362Z,-0.08
2023-02-27T04:14:22.949Z,-0.10
2023-02-27T04:19:42.936Z,-0.12
2023-02-27T04:25:01.738Z,-0.16
2023-02-27T04:30:14.068Z,-0.20
2023-02-27T04:35:29.523Z,-0.27
2023-02-27T04:40:49.109Z,-0.30
2023-02-27T04:45:53.390Z,-0.29
2023-02-27T04:51:03.259Z,-0.28
2023-02-27T04:56:12.013Z,-0.22
2023-02-27T05:06:35.422Z,-0.17
2023-02-27T05:11:53.724Z,-0.24
2023-02-27T05:17:40.032Z,-0.26
2023-02-27T05:22:51.196Z,-0.29
2023-02-27T05:28:02.768Z,-0.31
2023-02-27T05:33:13.109Z,-0.30
2023-02-27T05:38:28.663Z,-0.29
2023-02-27T05:43:48.985Z,-0.26
2023-02-27T05:48:57.212Z,-0.23
2023-02-27T05:54:16.312Z,-0.21
2023-02-27T05:59:26.555Z,-0.23
2023-02-27T06:04:28.909Z,-0.20
2023-02-27T06:09:31.869Z,-0.18
2023-02-27T06:14:33.537Z,-0.16
2023-02-27T06:19:35.450Z,-0.15
2023-02-27T06:24:37.424Z,-0.12
2023-02-27T06:29:39.078Z,-0.11
2023-02-27T06:34:40.686Z,-0.06
2023-02-27T06:39:42.387Z,-0.03
2023-02-27T06:44:44.110Z,0.05
2023-02-27T06:49:45.783Z,0.11
2023-02-27T06:54:47.362Z,0.14
2023-02-27T06:59:49.161Z,0.25
2023-02-27T07:04:51.353Z,0.45
2023-02-27T07:09:53.121Z,0.63
2023-02-27T07:14:54.696Z,0.83
2023-02-27T07:19:56.358Z,1.01
2023-02-27T07:24:58.038Z,1.18
2023-02-27T07:30:00.316Z,1.41
2023-02-27T07:35:03.439Z,1.52
2023-02-27T07:40:07.702Z,1.47
2023-02-27T07:45:09.952Z,1.62
2023-02-27T07:50:14.067Z,1.79
2023-02-27T07:55:15.898Z,1.98
2023-02-27T08:00:18.176Z,2.08
2023-02-27T08:05:19.857Z,2.02
2023-02-27T08:10:21.519Z,2.07
2023-02-27T08:15:23.164Z,2.24
2023-02-27T08:20:25.341Z,2.32
2023-02-27T08:25:27.207Z,2.27
2023-02-27T08:30:29.088Z,2.17
2023-02-27T08:35:31.426Z,2.35
2023-02-27T08:40:33.271Z,2.50
2023-02-27T08:45:34.826Z,2.52
2023-02-27T08:50:36.478Z,2.38
2023-02-27T08:55:38.203Z,2.36
2023-02-27T09:00:39.828Z,2.33
2023-02-27T09:05:42.565Z,2.46
2023-02-27T09:10:44.305Z,2.54
2023-02-27T09:15:47.416Z,2.56
2023-02-27T09:20:51.207Z,2.75
2023-02-27T09:25:53.122Z,2.98
2023-02-27T09:30:54.784Z,3.36
2023-02-27T09:35:56.354Z,3.71
2023-02-27T09:40:59.593Z,3.97
2023-02-27T09:46:02.936Z,4.30
2023-02-27T09:51:05.171Z,4.42
2023-02-27T09:56:21.660Z,4.77
2023-02-27T10:01:57.161Z,4.72
2023-02-27T10:07:04.022Z,4.57
2023-02-27T10:12:14.740Z,5.07
2023-02-27T10:17:28.425Z,4.98
2023-02-27T10:22:43.247Z,4.59
2023-02-27T10:27:48.329Z,4.38
2023-02-27T10:32:54.378Z,4.13
2023-02-27T10:38:01.900Z,4.02
2023-02-27T10:43:06.439Z,3.96
2023-02-27T10:48:08.715Z,4.21
2023-02-27T10:53:22.478Z,4.51
2023-02-27T10:58:24.616Z,4.65
2023-02-27T11:03:32.475Z,4.36
2023-02-27T11:08:35.882Z,3.69
2023-02-27T11:13:47.074Z,3.17
2023-02-27T11:18:51.164Z,3.40
2023-02-27T11:24:02.153Z,3.88
2023-02-27T11:29:17.758Z,4.19
2023-02-27T11:34:48.173Z,4.30
2023-02-27T11:39:57.813Z,3.79
2023-02-27T11:45:07.632Z,3.41
2023-02-27T11:50:32.160Z,3.23
2023-02-27T11:55:34.974Z,3.28
2023-02-27T12:00:42.340Z,3.12
2023-02-27T12:05:48.636Z,2.78
2023-02-27T12:11:22.033Z,2.57
2023-02-27T12:16:43.151Z,2.47
2023-02-27T12:21:50.122Z,2.39
2023-02-27T12:27:01.244Z,2.61
2023-02-27T12:32:40.806Z,3.30
2023-02-27T12:37:42.577Z,4.35
2023-02-27T12:43:10.878Z,4.91
2023-02-27T12:48:23.903Z,3.62
2023-02-27T12:53:25.547Z,2.80
2023-02-27T12:58:42.813Z,2.46
2023-02-27T13:04:00.552Z,2.31
2023-02-27T13:09:15.867Z,2.43
2023-02-27T13:14:53.619Z,2.80
2023-02-27T13:20:01.807Z,3.63
2023-02-27T13:25:14.251Z,4.42
2023-02-27T13:30:22.944Z,5.03
2023-02-27T13:35:36.261Z,5.11
2023-02-27T13:40:40.913Z,5.09
2023-02-27T13:45:59.197Z,5.03
2023-02-27T13:51:01.773Z,4.95
2023-02-27T13:56:22.298Z,4.38
2023-02-27T14:01:28.563Z,3.43
2023-02-27T14:06:30.956Z,2.91
2023-02-27T14:11:39.705Z,2.67
2023-02-27T14:16:41.362Z,2.62
2023-02-27T14:22:10.747Z,2.81
2023-02-27T14:27:24.062Z,2.97
2023-02-27T14:32:33.757Z,3.20
2023-02-27T14:37:36.285Z,3.26
2023-02-27T14:42:56.949Z,3.16
2023-02-27T14:47:59.041Z,2.89
2023-02-27T14:53:01.655Z,2.70
2023-02-27T14:58:16.157Z,2.54
2023-02-27T15:03:32.435Z,2.25
2023-02-27T15:08:41.898Z,2.07
2023-02-27T15:13:45.032Z,1.99
2023-02-27T15:18:50.910Z,2.08
2023-02-27T15:24:01.351Z,2.06
2023-02-27T15:29:06.179Z,1.99
2023-02-27T15:34:13.976Z,1.80
2023-02-27T15:39:19.032Z,1.64
2023-02-27T15:44:26.062Z,1.53
2023-02-27T15:49:27.869Z,1.45
2023-02-27T15:54:34.390Z,1.42
2023-02-27T15:59:42.100Z,1.31
2023-02-27T16:04:46.059Z,1.15
2023-02-27T16:10:00.699Z,1.01
2023-02-27T16:15:21.040Z,0.85
2023-02-27T16:20:54.986Z,0.71
2023-02-27T16:26:09.005Z,0.57
2023-02-27T16:31:40.656Z,0.49
2023-02-27T16:36:52.931Z,0.46
2023-02-27T16:41:56.890Z,0.53
2023-02-27T16:47:12.107Z,0.61
2023-02-27T16:52:13.773Z,0.67
2023-02-27T16:57:17.590Z,0.67
2023-02-27T17:02:19.317Z,0.66
2023-02-27T17:07:20.950Z,0.68
2023-02-27T17:12:22.648Z,0.68
2023-02-27T17:17:24.288Z,0.65
2023-02-27T17:22:26.049Z,0.58
2023-02-27T17:27:27.810Z,0.58
2023-02-27T17:32:29.702Z,0.69
2023-02-27T17:37:31.415Z,0.81
2023-02-27T17:42:35.795Z,0.92
2023-02-27T17:47:37.528Z,1.02
2023-02-27T17:52:39.991Z,1.10
2023-02-27T17:57:41.816Z,1.05
2023-02-27T18:02:45.037Z,0.94
2023-02-27T18:07:46.713Z,0.87
2023-02-27T18:12:48.387Z,0.85
2023-02-27T18:17:50.118Z,0.83
2023-02-27T18:22:51.923Z,0.85
2023-02-27T18:27:56.923Z,0.88
2023-02-27T18:32:59.503Z,0.98
2023-02-27T18:38:02.343Z,1.04
2023-02-27T18:43:04.918Z,1.01
2023-02-27T18:48:06.892Z,0.95
2023-02-27T18:53:08.506Z,0.93
2023-02-27T18:58:10.451Z,0.91
2023-02-27T19:03:12.315Z,0.93
2023-02-27T19:08:14.112Z,1.00
2023-02-27T19:13:15.803Z,0.95
2023-02-27T19:18:17.598Z,0.92
2023-02-27T19:23:19.322Z,0.88
2023-02-27T19:28:21.289Z,0.88
2023-02-27T19:33:22.903Z,0.81
2023-02-27T19:38:24.716Z,0.73
2023-02-27T19:43:26.566Z,0.67
2023-02-27T19:48:28.292Z,0.56
2023-02-27T19:53:30.079Z,0.50
2023-02-27T19:58:33.559Z,0.40
2023-02-27T20:03:36.450Z,0.29
2023-02-27T20:08:38.195Z,0.19
2023-02-27T20:13:40.208Z,0.06
2023-02-27T20:18:42.929Z,-0.05
2023-02-27T20:23:47.486Z,-0.17
2023-02-27T20:28:52.168Z,-0.20
2023-02-27T20:33:54.721Z,-0.19
2023-02-27T20:38:58.447Z,-0.21
2023-02-27T20:44:01.339Z,-0.21
2023-02-27T20:49:04.498Z,-0.17
2023-02-27T20:54:09.157Z,-0.15
2023-02-27T20:59:14.970Z,-0.10
2023-02-27T21:04:19.803Z,0.01
2023-02-27T21:09:22.281Z,0.08
2023-02-27T21:14:23.992Z,0.06
2023-02-27T21:19:26.017Z,-0.03
2023-02-27T21:24:27.730Z,-0.14
2023-02-27T21:29:29.884Z,-0.18
2023-02-27T21:34:31.650Z,-0.17
2023-02-27T21:39:33.469Z,-0.17
2023-02-27T21:44:35.265Z,-0.12
2023-02-27T21:49:38.414Z,-0.02
2023-02-27T21:54:40.274Z,0.08
2023-02-27T21:59:42.587Z,0.14
2023-02-27T22:04:44.243Z,0.23
2023-02-27T22:09:49.859Z,0.29
2023-02-27T22:14:55.448Z,0.28
2023-02-27T22:19:57.927Z,0.25
2023-02-27T22:24:59.737Z,0.21
2023-02-27T22:30:01.549Z,0.17
2023-02-27T22:35:03.421Z,0.14
2023-02-27T22:40:05.895Z,0.13
2023-02-27T22:45:08.967Z,0.11
2023-02-27T22:50:14.254Z,0.05
2023-02-27T22:55:17.310Z,0.02
2023-02-27T23:00:19.226Z,0.01
2023-02-27T23:05:21.038Z,0.00
2023-02-27T23:10:22.636Z,-0.02
2023-02-27T23:15:24.390Z,-0.05
2023-02-27T23:20:26.065Z,-0.07
2023-02-27T23:25:27.901Z,-0.09
2023-02-27T23:30:30.163Z,-0.10
2023-02-27T23:35:31.857Z,-0.10
2023-02-27T23:40:35.978Z,-0.07
2023-02-27T23:45:39.806Z,-0.02
2023-02-27T23:50:43.897Z,-0.01
2023-02-27T23:55:45.677Z,0.01
